Time;durP1;ratioP1;P1;durP2;ratioP2;P2;SDS_P1;SDS_P2;PMS_P1;PMS_P2;Temp;Humidity;BMP_temperature;BMP_pressure;BME280_temperature;BME280_humidity;BME280_pressure;Samples;Min_cycle;Max_cycle;Signal;HPM_P1;HPM_P2
2022/02/08 00:01:26;;;;;;;10.43;2.40;;;18.50;89.00;;;;;;5028473;28;20208;-74
2022/02/08 00:03:54;;;;;;;13.33;3.27;;;18.70;89.50;;;;;;5030855;28;20262;-76
2022/02/08 00:08:54;;;;;;;16.30;2.50;;;18.80;88.50;;;;;;5034433;28;20196;-75
2022/02/08 00:11:22;;;;;;;8.83;2.27;;;19.00;88.60;;;;;;5032637;28;20192;-74
2022/02/08 00:13:49;;;;;;;12.90;2.40;;;19.10;87.20;;;;;;5031541;28;20705;-76
2022/02/08 00:16:17;;;;;;;10.80;2.57;;;19.30;87.40;;;;;;5030949;28;20540;-76
2022/02/08 00:18:44;;;;;;;11.10;2.57;;;19.50;86.80;;;;;;5031382;28;20185;-79
2022/02/08 00:21:11;;;;;;;14.17;2.20;;;19.60;85.70;;;;;;5032418;28;20183;-78
2022/02/08 00:23:39;;;;;;;19.07;2.43;;;19.60;84.70;;;;;;5031876;28;20207;-76
2022/02/08 00:26:06;;;;;;;7.53;1.83;;;19.60;85.90;;;;;;5032531;28;20184;-76
2022/02/08 00:28:34;;;;;;;13.67;1.73;;;19.70;85.20;;;;;;5029278;28;20176;-76
2022/02/08 00:31:01;;;;;;;10.00;1.87;;;19.70;84.30;;;;;;5030388;28;20269;-76
2022/02/08 00:33:28;;;;;;;9.27;2.10;;;19.60;85.20;;;;;;5031474;28;20243;-74
2022/02/08 00:35:56;;;;;;;15.90;3.70;;;19.70;84.70;;;;;;5030357;28;20270;-79
2022/02/08 00:38:23;;;;;;;10.00;2.97;;;19.80;85.10;;;;;;5033024;28;20224;-76
2022/02/08 00:40:56;;;;;;;8.20;2.80;;;19.80;83.80;;;;;;5030605;28;20300;-77
2022/02/08 00:43:27;;;;;;;8.93;2.13;;;19.80;84.90;;;;;;5030913;28;20197;-78
2022/02/08 00:46:03;;;;;;;11.80;2.37;;;19.70;85.40;;;;;;5030780;28;20534;-78
2022/02/08 00:48:55;;;;;;;8.57;2.20;;;19.90;85.90;;;;;;5028337;28;20180;-75
2022/02/08 00:51:21;;;;;;;9.50;1.97;;;20.10;84.50;;;;;;5033857;28;20192;-75
2022/02/08 00:53:48;;;;;;;9.37;1.97;;;20.00;82.20;;;;;;5029757;28;20677;-74
2022/02/08 00:56:16;;;;;;;10.57;2.17;;;20.00;83.90;;;;;;5036840;28;20192;-76
2022/02/08 00:58:43;;;;;;;5.87;1.87;;;20.00;83.00;;;;;;5031479;28;20207;-75
2022/02/08 01:01:10;;;;;;;13.13;2.20;;;19.90;82.80;;;;;;5031209;28;20572;-74
2022/02/08 01:03:38;;;;;;;7.20;1.97;;;19.90;84.50;;;;;;5028935;28;20599;-74
2022/02/08 01:06:07;;;;;;;7.70;2.30;;;20.00;84.60;;;;;;5030772;28;20535;-74
2022/02/08 01:08:37;;;;;;;9.40;1.93;;;20.10;84.40;;;;;;5031762;28;20196;-74
2022/02/08 01:11:06;;;;;;;10.47;2.40;;;20.10;83.30;;;;;;5028970;28;20199;-73
2022/02/08 01:13:34;;;;;;;5.40;1.97;;;20.10;83.00;;;;;;5032718;28;20219;-74
2022/02/08 01:16:01;;;;;;;8.57;3.33;;;20.60;83.30;;;;;;5031557;28;20191;-76
2022/02/08 01:18:31;;;;;;;15.00;2.13;;;21.00;82.20;;;;;;5028205;28;20240;-77
2022/02/08 01:20:59;;;;;;;5.77;3.07;;;21.50;79.60;;;;;;5030145;28;20227;-75
2022/02/08 01:23:26;;;;;;;12.67;4.37;;;21.60;80.30;;;;;;5031484;28;20185;-75
2022/02/08 01:25:57;;;;;;;7.90;2.53;;;21.70;80.10;;;;;;5033887;28;20196;-75
2022/02/08 01:28:41;;;;;;;8.40;2.30;;;21.60;79.00;;;;;;5031152;28;20212;-75
2022/02/08 01:31:12;;;;;;;8.27;1.70;;;21.60;80.20;;;;;;5034939;28;20188;-76
2022/02/08 01:34:06;;;;;;;6.33;1.93;;;21.70;78.70;;;;;;5050167;28;20275;-79
2022/02/08 01:47:06;;;;;;;7.87;2.97;;;22.40;75.60;;;;;;5045636;28;20187;-74
2022/02/08 01:49:38;;;;;;;11.23;2.30;;;23.00;74.10;;;;;;5035987;28;20172;-81
2022/02/08 01:52:07;;;;;;;6.27;2.07;;;22.80;73.50;;;;;;5033214;28;20644;-77
2022/02/08 01:54:35;;;;;;;8.67;2.20;;;22.90;72.70;;;;;;5035083;28;20267;-76
2022/02/08 01:57:02;;;;;;;10.07;2.63;;;23.30;73.10;;;;;;5034604;28;20212;-79
2022/02/08 01:59:30;;;;;;;6.10;2.57;;;23.50;72.90;;;;;;5035261;28;20175;-74
2022/02/08 02:01:57;;;;;;;8.80;1.97;;;23.60;70.90;;;;;;5034349;28;20181;-73
2022/02/08 02:04:24;;;;;;;7.73;2.03;;;22.80;72.70;;;;;;5036385;28;20696;-74
2022/02/08 02:06:52;;;;;;;11.27;2.00;;;23.20;71.70;;;;;;5034749;28;20168;-79
2022/02/08 02:09:20;;;;;;;9.60;2.07;;;23.50;70.80;;;;;;5033941;28;20651;-76
2022/02/08 02:11:47;;;;;;;9.53;2.10;;;23.50;73.20;;;;;;5034703;28;20187;-77
2022/02/08 02:14:14;;;;;;;6.80;2.10;;;23.80;69.30;;;;;;5034463;28;20168;-74
2022/02/08 02:16:58;;;;;;;9.60;1.80;;;23.80;68.10;;;;;;5034201;28;20208;-74
2022/02/08 02:19:29;;;;;;;11.83;1.90;;;23.60;67.80;;;;;;5031494;28;20184;-74
2022/02/08 02:21:58;;;;;;;10.93;5.50;;;23.70;68.40;;;;;;5034143;28;20185;-77
2022/02/08 02:24:25;;;;;;;9.20;2.83;;;23.90;68.30;;;;;;5034653;28;20200;-72
2022/02/08 02:26:56;;;;;;;8.03;2.40;;;23.60;69.50;;;;;;5034541;28;20192;-72
2022/02/08 02:29:24;;;;;;;9.03;1.90;;;23.50;69.70;;;;;;5027310;28;20229;-74
2022/02/08 02:31:52;;;;;;;7.00;1.70;;;23.70;69.30;;;;;;5034440;28;20199;-76
2022/02/08 02:34:22;;;;;;;8.77;1.80;;;23.70;66.70;;;;;;5030006;28;20188;-73
2022/02/08 02:36:51;;;;;;;9.73;1.70;;;24.40;65.40;;;;;;5030733;28;20311;-75
2022/02/08 02:39:23;;;;;;;8.60;1.90;;;25.30;61.90;;;;;;5033101;28;20189;-72
2022/02/08 02:41:51;;;;;;;7.53;1.60;;;25.30;60.70;;;;;;5031538;28;20256;-73
2022/02/08 02:44:22;;;;;;;9.97;1.90;;;25.30;60.20;;;;;;5028960;28;20177;-73
2022/02/08 02:46:50;;;;;;;12.70;1.70;;;24.80;62.50;;;;;;5031436;28;20674;-75
2022/02/08 02:49:18;;;;;;;7.17;1.40;;;24.60;62.10;;;;;;5031124;28;20176;-75
2022/02/08 02:51:45;;;;;;;11.10;1.73;;;24.80;61.10;;;;;;5033878;28;20588;-76
2022/02/08 02:54:16;;;;;;;10.03;2.20;;;25.10;60.90;;;;;;5033544;28;20227;-75
2022/02/08 02:56:45;;;;;;;6.07;1.30;;;25.10;58.60;;;;;;5032702;28;20620;-76
2022/02/08 02:59:13;;;;;;;12.03;1.90;;;24.90;60.00;;;;;;5033094;28;20183;-75
2022/02/08 03:04:44;;;;;;;7.73;1.23;;;25.20;57.40;;;;;;5030622;28;20176;-75
2022/02/08 03:20:42;;;;;;;2.80;0.97;;;27.20;48.10;;;;;;5027595;28;20184;-78
2022/02/08 03:23:10;;;;;;;4.87;0.93;;;27.40;46.80;;;;;;5032358;28;20188;-82
2022/02/08 03:25:37;;;;;;;4.23;1.10;;;27.60;45.70;;;;;;5030675;28;20275;-74
2022/02/08 03:28:05;;;;;;;4.47;0.90;;;27.80;45.70;;;;;;5029565;28;20188;-77
2022/02/08 03:30:32;;;;;;;4.20;0.93;;;27.60;44.80;;;;;;5030578;28;20235;-80
2022/02/08 03:32:59;;;;;;;4.20;1.10;;;27.90;45.10;;;;;;5029502;28;20195;-76
2022/02/08 03:35:27;;;;;;;6.80;1.30;;;28.20;45.70;;;;;;5032481;28;20188;-75
2022/02/08 03:38:01;;;;;;;3.87;0.90;;;28.30;44.70;;;;;;5030316;28;20574;-73
2022/02/08 03:43:16;;;;;;;6.20;1.23;;;27.60;47.20;;;;;;5030059;28;20196;-75
2022/02/08 03:45:47;;;;;;;4.83;1.00;;;27.60;48.40;;;;;;5030795;28;20180;-76
2022/02/08 03:48:17;;;;;;;5.40;1.00;;;28.70;45.40;;;;;;5030119;28;20177;-76
2022/02/08 03:50:50;;;;;;;3.40;1.03;;;28.60;43.40;;;;;;5030015;28;20292;-75
2022/02/08 03:53:17;;;;;;;3.50;1.23;;;28.90;43.70;;;;;;5023267;28;20180;-75
2022/02/08 03:55:46;;;;;;;3.47;0.80;;;28.80;42.90;;;;;;5027446;28;20184;-78
2022/02/08 03:58:14;;;;;;;4.83;0.80;;;28.90;41.90;;;;;;5029502;28;20232;-77
2022/02/08 04:03:30;;;;;;;6.63;1.23;;;29.00;41.50;;;;;;5030944;28;20191;-77
2022/02/08 04:05:59;;;;;;;6.72;1.20;;;28.80;42.60;;;;;;5031266;28;20187;-78
2022/02/08 04:08:29;;;;;;;4.83;1.13;;;28.90;41.50;;;;;;5030456;28;20269;-81
2022/02/08 04:10:59;;;;;;;6.30;1.10;;;29.30;41.50;;;;;;5031106;28;20194;-74
2022/02/08 04:13:34;;;;;;;5.18;1.17;;;29.80;41.20;;;;;;5029675;28;20196;-78
2022/02/08 04:16:27;;;;;;;1.92;0.70;;;29.90;39.80;;;;;;5031688;28;20221;-81
2022/02/08 04:35:58;;;;;;;9.20;1.63;;;27.00;56.00;;;;;;5033650;28;20195;-79
2022/02/08 04:38:52;;;;;;;4.17;1.20;;;26.40;57.20;;;;;;5031290;28;20247;-76
2022/02/08 04:41:28;;;;;;;8.70;1.30;;;25.80;56.70;;;;;;5030741;28;20231;-77
2022/02/08 04:44:11;;;;;;;3.83;1.20;;;25.60;57.20;;;;;;5031119;28;20235;-75
2022/02/08 04:49:09;;;;;;;4.13;1.20;;;26.10;55.40;;;;;;5031772;28;20659;-75
2022/02/08 04:51:42;;;;;;;8.57;1.10;;;26.00;56.30;;;;;;5033337;28;20194;-74
2022/02/08 04:59:20;;;;;;;7.33;1.50;;;25.20;59.50;;;;;;5030968;28;20188;-74
2022/02/08 05:35:21;;;;;;;4.07;1.30;;;28.30;50.60;;;;;;5031765;28;20246;-78
2022/02/08 05:43:19;;;;;;;4.87;1.40;;;26.50;55.30;;;;;;5029376;28;20662;-74
2022/02/08 05:48:30;;;;;;;12.50;1.83;;;28.80;49.10;;;;;;5031005;28;20241;-72
2022/02/08 05:51:05;;;;;;;8.07;1.47;;;28.30;49.90;;;;;;5030023;28;20219;-74
2022/02/08 05:53:42;;;;;;;5.70;1.30;;;27.30;53.20;;;;;;5028558;28;20663;-78
2022/02/08 05:56:10;;;;;;;6.20;1.20;;;25.80;57.80;;;;;;5030066;28;20267;-76
2022/02/08 05:58:40;;;;;;;8.83;1.47;;;25.00;59.70;;;;;;5029736;28;20208;-75
2022/02/08 06:01:08;;;;;;;8.90;1.20;;;25.10;60.20;;;;;;5028939;28;20189;-78
2022/02/08 06:03:35;;;;;;;10.70;1.30;;;25.10;59.70;;;;;;5030098;28;20191;-77
2022/02/08 06:06:03;;;;;;;4.77;1.50;;;25.00;60.70;;;;;;5030900;28;20189;-79
2022/02/08 06:08:30;;;;;;;6.67;1.20;;;25.30;59.30;;;;;;5031176;28;20180;-72
2022/02/08 06:11:04;;;;;;;3.97;0.90;;;25.90;57.90;;;;;;5033212;28;20185;-74
2022/02/08 06:13:31;;;;;;;7.47;1.30;;;25.60;58.00;;;;;;5034171;28;20196;-73
2022/02/08 06:16:03;;;;;;;7.17;1.37;;;25.00;57.90;;;;;;5034561;28;20191;-71
2022/02/08 06:18:31;;;;;;;5.93;1.33;;;24.40;59.70;;;;;;5033971;28;20220;-73
2022/02/08 06:20:59;;;;;;;5.47;1.30;;;24.50;59.80;;;;;;5033061;28;20223;-74
2022/02/08 06:23:27;;;;;;;6.67;1.23;;;24.30;61.90;;;;;;5034306;28;20598;-74
2022/02/08 06:25:55;;;;;;;8.77;1.60;;;24.90;60.50;;;;;;5034154;28;20275;-75
2022/02/08 06:28:23;;;;;;;6.17;1.30;;;25.50;59.00;;;;;;5033794;28;20176;-75
2022/02/08 06:30:52;;;;;;;6.70;1.60;;;26.30;56.20;;;;;;5034512;28;20690;-77
2022/02/08 06:33:20;;;;;;;8.00;1.33;;;25.70;58.30;;;;;;5033249;28;20199;-76
2022/02/08 06:35:48;;;;;;;7.13;1.33;;;26.30;55.90;;;;;;5033575;28;20192;-75
2022/02/08 06:38:17;;;;;;;7.67;1.33;;;25.60;55.70;;;;;;5033473;28;20258;-74
2022/02/08 06:40:52;;;;;;;6.93;1.63;;;25.60;55.60;;;;;;5032867;28;20208;-74
2022/02/08 06:43:20;;;;;;;3.93;1.30;;;25.90;55.10;;;;;;5029656;28;20264;-74
2022/02/08 06:45:48;;;;;;;5.40;1.17;;;26.20;54.30;;;;;;5031221;28;20267;-75
2022/02/08 06:48:15;;;;;;;4.73;1.47;;;26.80;53.80;;;;;;5033104;28;20307;-74
2022/02/08 06:50:42;;;;;;;5.33;1.43;;;26.80;53.00;;;;;;5033935;28;20715;-75
2022/02/08 06:53:10;;;;;;;3.47;0.97;;;27.00;53.90;;;;;;5033428;28;20256;-74
2022/02/08 06:55:38;;;;;;;5.17;1.47;;;27.00;53.40;;;;;;5033775;28;20181;-73
2022/02/08 06:58:08;;;;;;;7.40;1.40;;;26.80;53.40;;;;;;5033595;28;20675;-73
2022/02/08 07:00:43;;;;;;;4.17;1.43;;;26.00;55.30;;;;;;5033414;28;20688;-72
2022/02/08 07:03:15;;;;;;;5.97;1.50;;;25.30;57.20;;;;;;5033307;28;20662;-74
2022/02/08 07:05:44;;;;;;;4.67;0.90;;;25.10;59.00;;;;;;5030985;28;20169;-75
2022/02/08 07:08:11;;;;;;;5.03;1.10;;;25.10;58.00;;;;;;5033412;28;20315;-74
2022/02/08 07:10:41;;;;;;;4.40;1.00;;;25.00;58.20;;;;;;5034233;28;20275;-75
2022/02/08 07:13:09;;;;;;;5.63;1.40;;;25.50;57.30;;;;;;5029968;28;20647;-73
2022/02/08 07:15:37;;;;;;;5.20;1.43;;;26.00;56.20;;;;;;5033402;28;20184;-74
2022/02/08 07:18:04;;;;;;;8.73;1.93;;;26.50;54.50;;;;;;5033083;28;20216;-74
2022/02/08 07:20:32;;;;;;;8.73;1.80;;;27.30;54.10;;;;;;5033393;28;20706;-74
2022/02/08 07:22:59;;;;;;;4.13;1.30;;;27.90;52.00;;;;;;5032943;28;20211;-74
2022/02/08 07:25:27;;;;;;;6.37;1.30;;;27.80;50.60;;;;;;5033420;28;20177;-75
2022/02/08 07:27:55;;;;;;;3.60;1.30;;;28.00;51.80;;;;;;5031063;28;20538;-76
2022/02/08 07:30:22;;;;;;;9.27;1.13;;;27.20;54.10;;;;;;5047338;28;20243;-74
2022/02/08 07:32:53;;;;;;;5.93;1.37;;;26.40;56.40;;;;;;5032403;28;20597;-74
2022/02/08 07:38:30;;;;;;;4.80;1.20;;;26.80;56.10;;;;;;5032253;28;20208;-75
2022/02/08 07:41:35;;;;;;;3.90;1.40;;;26.60;56.30;;;;;;5029771;28;20208;-74
2022/02/08 07:43:32;;;;;;;5.20;2.20;;;26.90;54.90;;;;;;5029324;28;20219;-74
2022/02/08 07:46:03;;;;;;;4.77;1.47;;;26.60;54.60;;;;;;5032354;28;20207;-74
2022/02/08 07:48:30;;;;;;;4.57;1.40;;;26.00;55.90;;;;;;5031891;28;20200;-74
2022/02/08 07:50:57;;;;;;;4.90;1.23;;;25.50;57.00;;;;;;5031824;28;20296;-73
2022/02/08 07:53:27;;;;;;;9.77;1.83;;;25.00;61.70;;;;;;5029039;28;20215;-74
2022/02/08 07:55:57;;;;;;;5.40;1.70;;;24.40;62.90;;;;;;5031255;28;20653;-74
2022/02/08 07:58:25;;;;;;;6.33;1.37;;;24.10;64.50;;;;;;5032672;28;20676;-74
2022/02/08 08:00:52;;;;;;;7.33;1.30;;;23.80;66.50;;;;;;5031117;28;20283;-74
2022/02/08 08:03:19;;;;;;;8.17;1.30;;;23.50;67.30;;;;;;5031600;28;20227;-73
2022/02/08 08:05:48;;;;;;;8.03;1.67;;;23.40;68.50;;;;;;5032327;28;20203;-74
2022/02/08 08:08:15;;;;;;;8.77;1.80;;;23.30;68.90;;;;;;5026868;28;20176;-73
2022/02/08 08:10:46;;;;;;;4.20;1.50;;;23.20;70.00;;;;;;5029476;28;20211;-74
2022/02/08 08:13:17;;;;;;;4.93;2.03;;;23.00;70.00;;;;;;5025656;28;20173;-73
2022/02/08 08:15:53;;;;;;;6.27;2.00;;;23.00;69.50;;;;;;5032047;28;20180;-74
2022/02/08 08:18:55;;;;;;;8.40;1.90;;;22.90;70.00;;;;;;5027716;28;20212;-73
2022/02/08 08:21:11;;;;;;;5.80;2.10;;;22.80;70.60;;;;;;5029292;28;20614;-74
2022/02/08 08:23:38;;;;;;;8.57;2.80;;;22.90;70.20;;;;;;5031563;28;21282;-74
2022/02/08 08:26:05;;;;;;;8.30;1.83;;;22.80;70.30;;;;;;5032264;28;20230;-73
2022/02/08 08:28:32;;;;;;;6.80;1.50;;;22.80;70.60;;;;;;5031910;28;20185;-73
2022/02/08 08:31:00;;;;;;;10.13;2.07;;;22.50;71.40;;;;;;5031059;28;20192;-74
2022/02/08 08:33:28;;;;;;;11.17;2.80;;;22.40;71.80;;;;;;5027639;28;20182;-74
2022/02/08 08:35:55;;;;;;;4.70;2.07;;;22.30;72.10;;;;;;5029198;28;20191;-73
2022/02/08 08:38:24;;;;;;;5.60;2.10;;;22.30;72.40;;;;;;5031305;28;20588;-73
2022/02/08 08:51:46;;;;;;;5.33;1.97;;;22.00;73.30;;;;;;5031941;28;20552;-74
2022/02/08 08:54:14;;;;;;;11.70;2.97;;;22.00;74.10;;;;;;5030858;28;20222;-74
2022/02/08 08:56:45;;;;;;;13.37;2.83;;;21.80;73.70;;;;;;5030874;28;20184;-74
2022/02/08 08:59:16;;;;;;;10.33;2.17;;;21.80;74.10;;;;;;5028619;28;20193;-74
2022/02/08 09:01:43;;;;;;;7.23;2.07;;;21.80;73.90;;;;;;5029169;28;20635;-74
2022/02/08 09:04:12;;;;;;;5.67;1.50;;;21.80;74.10;;;;;;5030618;28;20184;-75
2022/02/08 09:06:40;;;;;;;6.90;1.60;;;21.80;74.60;;;;;;5031473;28;20183;-74
2022/02/08 09:09:11;;;;;;;7.87;2.00;;;21.80;74.70;;;;;;5029933;28;20184;-75
2022/02/08 09:14:42;;;;;;;6.67;2.00;;;21.70;74.80;;;;;;5030717;28;20714;-75
2022/02/08 09:25:07;;;;;;;9.20;2.50;;;21.50;75.30;;;;;;5028248;28;20218;-75
2022/02/08 09:30:17;;;;;;;6.57;1.80;;;21.40;75.50;;;;;;5029110;28;20178;-75
2022/02/08 09:32:52;;;;;;;6.37;2.60;;;21.30;75.80;;;;;;5030334;28;20290;-75
2022/02/08 09:35:20;;;;;;;7.37;1.97;;;21.30;76.20;;;;;;5027876;28;20184;-74
2022/02/08 09:37:48;;;;;;;8.70;1.90;;;21.30;76.30;;;;;;5029982;28;20223;-74
2022/02/08 09:40:21;;;;;;;5.93;1.70;;;21.30;76.10;;;;;;5031037;28;20283;-74
2022/02/08 09:42:53;;;;;;;7.47;1.77;;;21.30;76.40;;;;;;5031462;28;20199;-74
2022/02/08 09:45:22;;;;;;;9.83;2.57;;;21.30;76.70;;;;;;5033034;28;20663;-74
2022/02/08 09:48:00;;;;;;;8.30;1.90;;;21.20;76.90;;;;;;5034609;28;20172;-74
2022/02/08 09:50:32;;;;;;;6.90;2.00;;;21.20;76.90;;;;;;5034897;28;20188;-74
2022/02/08 09:53:01;;;;;;;5.37;1.83;;;21.30;76.90;;;;;;5035016;28;20188;-74
2022/02/08 09:55:40;;;;;;;7.83;2.07;;;21.30;76.70;;;;;;5029270;28;20199;-75
2022/02/08 09:58:10;;;;;;;6.30;2.13;;;21.20;76.70;;;;;;5034546;28;20228;-75
2022/02/08 10:00:40;;;;;;;12.70;1.73;;;21.20;76.60;;;;;;5034048;28;20185;-75
2022/02/08 10:03:10;;;;;;;9.57;2.40;;;21.20;76.60;;;;;;5032654;28;20189;-75
2022/02/08 10:05:56;;;;;;;8.33;1.97;;;21.20;76.80;;;;;;5034860;28;20231;-75
2022/02/08 10:08:24;;;;;;;12.50;2.20;;;21.20;76.70;;;;;;5034601;28;20172;-75
2022/02/08 10:10:51;;;;;;;8.87;2.17;;;21.30;76.40;;;;;;5034270;28;20177;-74
2022/02/08 10:21:40;;;;;;;7.57;2.00;;;21.30;76.50;;;;;;5033862;28;20203;-74
2022/02/08 10:24:09;;;;;;;7.23;1.77;;;21.30;76.40;;;;;;5034292;28;20193;-74
2022/02/08 10:29:58;;;;;;;5.97;1.70;;;21.30;76.10;;;;;;5031350;28;20216;-75
2022/02/08 10:37:56;;;;;;;10.40;2.77;;;21.30;76.60;;;;;;5033942;28;20274;-74
2022/02/08 10:40:24;;;;;;;9.97;2.23;;;21.30;76.70;;;;;;5029328;28;20184;-76
2022/02/08 10:42:56;;;;;;;7.40;2.00;;;21.20;76.70;;;;;;5034227;28;20188;-75
2022/02/08 10:45:35;;;;;;;8.93;2.03;;;21.20;76.60;;;;;;5034104;28;20635;-75
2022/02/08 10:48:11;;;;;;;11.90;1.90;;;21.10;77.00;;;;;;5028813;28;20738;-76
2022/02/08 10:50:44;;;;;;;6.00;1.73;;;21.00;77.00;;;;;;5032341;28;20210;-75
2022/02/08 10:53:12;;;;;;;9.87;2.00;;;20.90;76.90;;;;;;5031486;28;20651;-75
2022/02/08 10:59:16;;;;;;;10.93;1.97;;;20.80;77.20;;;;;;5024712;28;20627;-75
2022/02/08 11:01:58;;;;;;;7.60;1.70;;;20.80;77.80;;;;;;5030896;28;20184;-75
2022/02/08 11:04:52;;;;;;;7.67;2.00;;;20.80;78.00;;;;;;5032937;28;20203;-74
2022/02/08 11:18:39;;;;;;;9.60;2.00;;;20.50;79.20;;;;;;5032727;28;20203;-74
2022/02/08 11:21:39;;;;;;;10.47;1.93;;;20.50;79.30;;;;;;5033448;28;20213;-73
2022/02/08 11:24:40;;;;;;;9.30;2.37;;;20.40;79.90;;;;;;5032591;28;20234;-74
2022/02/08 11:27:11;;;;;;;14.10;2.60;;;20.30;80.10;;;;;;5032777;28;20200;-75
2022/02/08 11:29:59;;;;;;;10.67;2.40;;;20.30;81.00;;;;;;5030553;28;20195;-73
2022/02/08 11:32:47;;;;;;;17.77;2.13;;;20.30;80.80;;;;;;5032461;28;20280;-74
2022/02/08 11:51:52;;;;;;;7.57;2.20;;;20.20;81.00;;;;;;5033423;28;20177;-74
2022/02/08 11:57:52;;;;;;;15.63;2.50;;;20.10;81.40;;;;;;5008337;28;20738;-73
2022/02/08 12:00:18;;;;;;;8.10;2.33;;;19.90;81.60;;;;;;5010585;28;20193;-73
2022/02/08 12:02:55;;;;;;;10.63;2.53;;;19.90;82.30;;;;;;5024212;28;20207;-74
2022/02/08 12:08:03;;;;;;;9.90;2.37;;;19.90;82.60;;;;;;5031322;28;20176;-74
2022/02/08 12:10:46;;;;;;;7.60;2.40;;;19.90;82.50;;;;;;5032433;28;20212;-74
2022/02/08 12:13:42;;;;;;;7.90;2.30;;;19.80;82.50;;;;;;5025250;28;20179;-75
2022/02/08 12:57:50;;;;;;;7.90;1.40;;;19.30;83.50;;;;;;5031258;28;20301;-74
2022/02/08 13:00:41;;;;;;;8.20;1.77;;;19.20;83.80;;;;;;5031307;28;20395;-74
2022/02/08 13:06:22;;;;;;;6.03;1.67;;;19.20;83.90;;;;;;5032164;28;20177;-74
2022/02/08 14:14:52;;;;;;;9.53;1.87;;;19.50;82.60;;;;;;5034125;28;20180;-75
2022/02/08 14:25:24;;;;;;;4.47;1.50;;;18.90;84.70;;;;;;5034294;28;20224;-75
2022/02/08 14:30:47;;;;;;;17.90;2.10;;;18.70;84.80;;;;;;5030485;28;20235;-75
2022/02/08 14:57:44;;;;;;;9.10;2.20;;;18.50;86.20;;;;;;5032727;28;20216;-75
2022/02/08 15:00:21;;;;;;;3.97;1.40;;;18.50;86.80;;;;;;5032191;28;20180;-75
2022/02/08 15:08:35;;;;;;;7.33;1.73;;;18.40;87.10;;;;;;5029866;28;20189;-75
2022/02/08 15:11:09;;;;;;;7.93;1.60;;;18.30;86.90;;;;;;5032835;28;20209;-74
2022/02/08 15:13:43;;;;;;;9.17;1.70;;;18.20;87.20;;;;;;5033661;28;20193;-73
2022/02/08 15:16:23;;;;;;;6.47;1.67;;;18.30;87.60;;;;;;5033936;28;20271;-74
2022/02/08 15:18:51;;;;;;;9.03;1.70;;;18.30;87.60;;;;;;5030973;28;20207;-75
2022/02/08 15:21:24;;;;;;;8.23;1.57;;;18.30;87.40;;;;;;5032487;28;20617;-74
2022/02/08 15:23:51;;;;;;;6.93;1.60;;;18.30;87.80;;;;;;5030960;28;20523;-75
2022/02/08 15:26:20;;;;;;;9.33;1.73;;;18.30;88.00;;;;;;5033440;28;20722;-74
2022/02/08 15:28:48;;;;;;;9.77;2.37;;;18.30;88.10;;;;;;5028066;28;20188;-74
2022/02/08 15:31:17;;;;;;;7.57;1.77;;;18.30;88.00;;;;;;5033450;28;20308;-74
2022/02/08 15:33:45;;;;;;;8.20;2.33;;;18.30;88.10;;;;;;5033193;28;20189;-74
2022/02/08 15:36:15;;;;;;;5.00;2.20;;;18.20;87.70;;;;;;5031127;28;20192;-75
2022/02/08 15:38:53;;;;;;;13.13;2.40;;;18.20;87.80;;;;;;5033346;28;20679;-74
2022/02/08 15:41:21;;;;;;;8.03;2.57;;;18.20;88.10;;;;;;5032153;28;20239;-74
2022/02/08 15:43:51;;;;;;;10.80;2.90;;;18.20;88.10;;;;;;5032092;28;20196;-75
2022/02/08 15:46:25;;;;;;;12.00;3.50;;;18.20;88.40;;;;;;5033352;28;20209;-74
2022/02/08 15:48:54;;;;;;;20.93;3.37;;;18.20;88.30;;;;;;5031122;28;20243;-74
2022/02/08 16:07:09;;;;;;;5.53;1.40;;;18.10;89.00;;;;;;5030193;28;20186;-74
2022/02/08 16:09:49;;;;;;;8.83;1.87;;;18.10;89.00;;;;;;5032394;28;20204;-74
2022/02/08 16:20:03;;;;;;;9.90;2.33;;;18.00;89.40;;;;;;5032637;28;20180;-75
2022/02/08 16:28:22;;;;;;;8.83;2.40;;;17.90;89.10;;;;;;5031030;28;20693;-75
2022/02/08 16:51:08;;;;;;;5.03;1.47;;;17.50;89.70;;;;;;5027575;28;20650;-76
2022/02/08 16:56:06;;;;;;;9.23;1.63;;;17.40;89.70;;;;;;5027304;28;20553;-73
2022/02/08 17:01:09;;;;;;;8.63;1.90;;;17.40;89.90;;;;;;5031776;28;20640;-74
2022/02/08 17:03:42;;;;;;;7.57;1.60;;;17.40;90.10;;;;;;5029080;28;20199;-74
2022/02/08 17:06:10;;;;;;;7.77;1.50;;;17.40;90.00;;;;;;5031366;28;20315;-74
2022/02/08 17:08:37;;;;;;;7.23;1.70;;;17.40;89.90;;;;;;5032169;28;20184;-74
2022/02/08 17:11:06;;;;;;;11.00;1.80;;;17.40;90.00;;;;;;5031110;28;20694;-73
2022/02/08 17:13:50;;;;;;;8.10;2.07;;;17.30;90.40;;;;;;5031895;28;20185;-74
2022/02/08 17:16:46;;;;;;;5.60;1.53;;;17.30;90.10;;;;;;5029095;28;20185;-74
2022/02/08 17:19:29;;;;;;;3.37;1.40;;;17.30;89.90;;;;;;5030703;28;20334;-75
2022/02/08 17:45:01;;;;;;;9.30;1.90;;;17.30;89.90;;;;;;5031204;28;20685;-74
2022/02/08 17:46:55;;;;;;;5.80;1.30;;;17.30;88.90;;;;;;5031898;28;20553;-75
2022/02/08 17:49:22;;;;;;;4.07;1.30;;;17.40;88.70;;;;;;5031545;28;20180;-75
2022/02/08 17:51:50;;;;;;;4.47;1.13;;;17.30;88.70;;;;;;5028714;28;20236;-75
2022/02/08 17:54:20;;;;;;;9.00;1.60;;;17.30;88.70;;;;;;5031533;28;20204;-76
2022/02/08 17:56:47;;;;;;;6.17;1.43;;;17.40;88.50;;;;;;5029745;28;20192;-75
2022/02/08 17:59:15;;;;;;;11.30;2.00;;;17.40;88.60;;;;;;5029951;28;20250;-75
2022/02/08 18:01:42;;;;;;;7.37;1.50;;;17.50;88.50;;;;;;5030433;28;20555;-74
2022/02/08 18:04:10;;;;;;;5.23;1.20;;;17.80;86.80;;;;;;5030716;28;20184;-76
2022/02/08 18:06:37;;;;;;;7.07;1.30;;;17.80;86.30;;;;;;5031831;28;20618;-76
2022/02/08 18:09:04;;;;;;;7.37;1.53;;;17.70;86.90;;;;;;5035166;28;20227;-76
2022/02/08 18:11:38;;;;;;;6.00;1.47;;;17.60;87.40;;;;;;5034824;28;20590;-75
2022/02/08 18:14:12;;;;;;;6.93;1.20;;;17.50;87.10;;;;;;5033931;28;20175;-76
2022/02/08 18:16:39;;;;;;;10.07;1.90;;;17.50;87.30;;;;;;5034708;28;20184;-76
2022/02/08 18:19:14;;;;;;;3.27;1.47;;;17.40;87.30;;;;;;5033967;28;20223;-76
2022/02/08 18:21:57;;;;;;;9.37;1.70;;;17.30;87.30;;;;;;5034102;28;20688;-75
2022/02/08 18:58:00;;;;;;;10.47;1.53;;;17.00;88.90;;;;;;5032520;28;20708;-74
2022/02/08 19:07:02;;;;;;;5.33;1.70;;;16.80;88.70;;;;;;5033520;28;20819;-75
2022/02/08 19:09:04;;;;;;;6.53;1.40;;;16.80;89.10;;;;;;5033996;28;20180;-75
2022/02/08 19:12:00;;;;;;;13.17;2.13;;;16.80;89.10;;;;;;5031339;28;20196;-76
2022/02/08 19:14:55;;;;;;;6.10;1.90;;;16.80;89.20;;;;;;5028829;28;20241;-75
2022/02/08 19:17:23;;;;;;;4.67;1.40;;;16.80;89.20;;;;;;5031520;28;20193;-75
2022/02/08 19:19:57;;;;;;;5.30;1.90;;;16.80;89.20;;;;;;5033153;28;20227;-75
2022/02/08 19:22:26;;;;;;;6.87;1.83;;;16.80;89.40;;;;;;5033741;28;20555;-75
2022/02/08 19:24:54;;;;;;;7.90;2.07;;;16.90;89.50;;;;;;5033359;28;20242;-76
2022/02/08 19:27:21;;;;;;;7.03;1.83;;;16.90;89.10;;;;;;5033648;28;20282;-73
2022/02/08 19:29:50;;;;;;;8.43;1.60;;;16.90;89.10;;;;;;5032628;28;20188;-76
2022/02/08 19:32:17;;;;;;;8.83;1.73;;;16.80;89.20;;;;;;5033560;28;20238;-76
2022/02/08 19:34:46;;;;;;;9.17;1.80;;;16.80;89.20;;;;;;5032526;28;20275;-75
2022/02/08 19:37:17;;;;;;;6.37;1.40;;;16.80;88.90;;;;;;5030595;28;20212;-74
2022/02/08 19:39:46;;;;;;;10.20;1.77;;;16.80;89.20;;;;;;5033068;28;20643;-75
2022/02/08 19:42:14;;;;;;;8.70;1.73;;;16.90;89.10;;;;;;5030411;28;20223;-76
2022/02/08 19:44:45;;;;;;;7.50;1.50;;;16.90;89.20;;;;;;5033336;28;20189;-75
2022/02/08 19:47:12;;;;;;;7.40;1.47;;;17.00;89.00;;;;;;5029974;28;20176;-76
2022/02/08 19:49:39;;;;;;;6.87;1.70;;;17.00;89.10;;;;;;5032730;28;20227;-76
2022/02/08 19:52:07;;;;;;;6.60;1.73;;;17.00;88.80;;;;;;5030735;28;20192;-75
2022/02/08 19:54:42;;;;;;;5.47;1.70;;;17.10;88.70;;;;;;5032561;28;20271;-75
2022/02/08 19:57:17;;;;;;;3.60;1.60;;;17.00;88.60;;;;;;5032812;28;21444;-76
2022/02/08 19:59:45;;;;;;;7.07;1.73;;;17.10;88.80;;;;;;5031741;28;20283;-75
2022/02/08 20:02:15;;;;;;;13.90;2.30;;;17.20;88.50;;;;;;5029696;28;20195;-75
2022/02/08 20:04:48;;;;;;;5.27;1.60;;;17.30;88.30;;;;;;5032203;28;20196;-75
2022/02/08 20:07:16;;;;;;;6.13;1.73;;;17.30;88.40;;;;;;5029040;28;20629;-75
2022/02/08 20:09:44;;;;;;;9.57;1.60;;;17.50;87.90;;;;;;5029661;28;20275;-76
2022/02/08 20:12:11;;;;;;;9.80;2.23;;;17.60;87.50;;;;;;5029407;28;20272;-74
2022/02/08 20:14:39;;;;;;;7.47;1.70;;;17.70;87.50;;;;;;5032351;28;20185;-75
2022/02/08 20:17:07;;;;;;;3.43;1.23;;;17.70;87.10;;;;;;5032028;28;20281;-73
2022/02/08 20:19:35;;;;;;;8.40;1.50;;;17.80;87.10;;;;;;5032292;28;20188;-75
2022/02/08 20:22:06;;;;;;;12.10;2.23;;;17.90;86.70;;;;;;5031354;28;20254;-74
2022/02/08 20:24:33;;;;;;;4.90;1.50;;;18.00;86.80;;;;;;5032723;28;20184;-74
2022/02/08 20:29:33;;;;;;;7.93;1.40;;;18.20;86.30;;;;;;5032225;28;20272;-74
2022/02/08 20:32:00;;;;;;;5.40;1.67;;;18.30;85.80;;;;;;5031829;28;20556;-74
2022/02/08 20:34:30;;;;;;;6.07;1.60;;;18.30;85.50;;;;;;5031567;28;20165;-75
2022/02/08 20:36:59;;;;;;;7.87;1.50;;;18.40;85.20;;;;;;5031762;28;20231;-74
2022/02/08 20:39:27;;;;;;;6.13;1.90;;;18.50;85.00;;;;;;5032389;28;20212;-73